sensor_id;sensor_type;location;lat;lon;timestamp;P1;durP1;ratioP1;P2;durP2;ratioP2
45326;SDS011;31062;49.678;24.560;2022-09-03T00:00:17;3.75;;;2.35;;
45326;SDS011;31062;49.678;24.560;2022-09-03T00:03:05;2.25;;;2.05;;
45326;SDS011;31062;49.678;24.560;2022-09-03T00:08:54;3.03;;;2.10;;
45326;SDS011;31062;49.678;24.560;2022-09-03T00:15:02;2.03;;;1.80;;
45326;SDS011;31062;49.678;24.560;2022-09-03T00:18:00;2.20;;;1.95;;
45326;SDS011;31062;49.678;24.560;2022-09-03T00:20:51;3.20;;;2.08;;
45326;SDS011;31062;49.678;24.560;2022-09-03T00:23:43;2.33;;;2.10;;
45326;SDS011;31062;49.678;24.560;2022-09-03T00:26:32;3.47;;;2.13;;
45326;SDS011;31062;49.678;24.560;2022-09-03T00:33:03;2.05;;;1.85;;
45326;SDS011;31062;49.678;24.560;2022-09-03T00:36:07;6.15;;;2.55;;
45326;SDS011;31062;49.678;24.560;2022-09-03T00:38:58;4.32;;;2.17;;
45326;SDS011;31062;49.678;24.560;2022-09-03T00:41:47;2.47;;;1.90;;
45326;SDS011;31062;49.678;24.560;2022-09-03T01:00:22;4.00;;;2.20;;
45326;SDS011;31062;49.678;24.560;2022-09-03T01:03:09;3.95;;;2.00;;
45326;SDS011;31062;49.678;24.560;2022-09-03T01:21:04;3.08;;;2.78;;
45326;SDS011;31062;49.678;24.560;2022-09-03T01:27:08;4.40;;;3.05;;
45326;SDS011;31062;49.678;24.560;2022-09-03T01:30:02;5.45;;;2.38;;
45326;SDS011;31062;49.678;24.560;2022-09-03T01:33:02;3.20;;;2.90;;
45326;SDS011;31062;49.678;24.560;2022-09-03T01:35:52;3.80;;;2.53;;
45326;SDS011;31062;49.678;24.560;2022-09-03T01:39:10;3.30;;;2.95;;
45326;SDS011;31062;49.678;24.560;2022-09-03T01:42:08;4.68;;;2.92;;
45326;SDS011;31062;49.678;24.560;2022-09-03T01:45:08;4.05;;;3.05;;
45326;SDS011;31062;49.678;24.560;2022-09-03T01:51:43;5.40;;;3.03;;
45326;SDS011;31062;49.678;24.560;2022-09-03T01:58:16;4.60;;;3.55;;
45326;SDS011;31062;49.678;24.560;2022-09-03T02:01:21;4.32;;;3.40;;
45326;SDS011;31062;49.678;24.560;2022-09-03T02:04:16;4.15;;;2.88;;
45326;SDS011;31062;49.678;24.560;2022-09-03T02:07:04;5.22;;;3.17;;
45326;SDS011;31062;49.678;24.560;2022-09-03T02:09:50;4.85;;;3.33;;
45326;SDS011;31062;49.678;24.560;2022-09-03T02:12:36;6.93;;;3.70;;
45326;SDS011;31062;49.678;24.560;2022-09-03T02:15:27;5.35;;;3.13;;
45326;SDS011;31062;49.678;24.560;2022-09-03T02:18:16;4.68;;;2.85;;
45326;SDS011;31062;49.678;24.560;2022-09-03T02:21:05;4.80;;;3.03;;
45326;SDS011;31062;49.678;24.560;2022-09-03T02:23:51;4.63;;;3.13;;
45326;SDS011;31062;49.678;24.560;2022-09-03T02:26:37;5.68;;;3.22;;
45326;SDS011;31062;49.678;24.560;2022-09-03T02:29:23;4.47;;;3.00;;
45326;SDS011;31062;49.678;24.560;2022-09-03T02:32:11;4.95;;;2.72;;
45326;SDS011;31062;49.678;24.560;2022-09-03T02:34:59;5.85;;;3.03;;
45326;SDS011;31062;49.678;24.560;2022-09-03T02:37:44;5.03;;;3.15;;
45326;SDS011;31062;49.678;24.560;2022-09-03T02:40:29;3.92;;;2.88;;
45326;SDS011;31062;49.678;24.560;2022-09-03T02:43:19;4.65;;;2.75;;
45326;SDS011;31062;49.678;24.560;2022-09-03T02:46:45;5.13;;;3.00;;
45326;SDS011;31062;49.678;24.560;2022-09-03T02:49:35;4.75;;;2.45;;
45326;SDS011;31062;49.678;24.560;2022-09-03T02:52:21;4.70;;;3.25;;
45326;SDS011;31062;49.678;24.560;2022-09-03T02:55:07;3.90;;;2.85;;
45326;SDS011;31062;49.678;24.560;2022-09-03T02:57:52;4.53;;;2.78;;
45326;SDS011;31062;49.678;24.560;2022-09-03T03:00:38;5.63;;;3.38;;
45326;SDS011;31062;49.678;24.560;2022-09-03T03:03:23;3.30;;;2.60;;
45326;SDS011;31062;49.678;24.560;2022-09-03T03:06:10;4.13;;;3.22;;
45326;SDS011;31062;49.678;24.560;2022-09-03T03:08:57;7.40;;;3.30;;
45326;SDS011;31062;49.678;24.560;2022-09-03T03:11:44;7.07;;;3.13;;
45326;SDS011;31062;49.678;24.560;2022-09-03T03:14:30;5.15;;;3.50;;
45326;SDS011;31062;49.678;24.560;2022-09-03T03:17:16;5.95;;;3.10;;
45326;SDS011;31062;49.678;24.560;2022-09-03T03:20:01;4.15;;;3.22;;
45326;SDS011;31062;49.678;24.560;2022-09-03T03:22:47;4.60;;;3.03;;
45326;SDS011;31062;49.678;24.560;2022-09-03T03:25:33;4.40;;;3.50;;
45326;SDS011;31062;49.678;24.560;2022-09-03T03:28:21;5.30;;;3.42;;
45326;SDS011;31062;49.678;24.560;2022-09-03T03:31:10;5.93;;;3.40;;
45326;SDS011;31062;49.678;24.560;2022-09-03T03:33:58;5.05;;;3.72;;
45326;SDS011;31062;49.678;24.560;2022-09-03T03:36:45;3.65;;;3.35;;
45326;SDS011;31062;49.678;24.560;2022-09-03T03:39:32;4.95;;;3.83;;
45326;SDS011;31062;49.678;24.560;2022-09-03T03:42:18;4.45;;;3.30;;
45326;SDS011;31062;49.678;24.560;2022-09-03T03:45:04;6.10;;;4.20;;
45326;SDS011;31062;49.678;24.560;2022-09-03T03:47:51;5.57;;;3.72;;
45326;SDS011;31062;49.678;24.560;2022-09-03T03:50:37;5.57;;;4.75;;
45326;SDS011;31062;49.678;24.560;2022-09-03T03:53:22;6.20;;;3.60;;
45326;SDS011;31062;49.678;24.560;2022-09-03T03:56:08;5.43;;;3.83;;
45326;SDS011;31062;49.678;24.560;2022-09-03T03:58:57;5.57;;;3.83;;
45326;SDS011;31062;49.678;24.560;2022-09-03T04:01:43;7.50;;;4.10;;
45326;SDS011;31062;49.678;24.560;2022-09-03T04:04:29;4.70;;;3.53;;
45326;SDS011;31062;49.678;24.560;2022-09-03T04:07:15;6.13;;;3.65;;
45326;SDS011;31062;49.678;24.560;2022-09-03T04:10:00;7.28;;;3.78;;
45326;SDS011;31062;49.678;24.560;2022-09-03T04:12:45;4.63;;;3.38;;
45326;SDS011;31062;49.678;24.560;2022-09-03T04:15:31;7.60;;;3.65;;
45326;SDS011;31062;49.678;24.560;2022-09-03T04:18:16;4.90;;;3.10;;
45326;SDS011;31062;49.678;24.560;2022-09-03T04:21:06;4.88;;;3.40;;
45326;SDS011;31062;49.678;24.560;2022-09-03T04:23:52;6.28;;;3.33;;
45326;SDS011;31062;49.678;24.560;2022-09-03T04:26:39;7.60;;;3.55;;
45326;SDS011;31062;49.678;24.560;2022-09-03T04:29:25;4.57;;;3.38;;
45326;SDS011;31062;49.678;24.560;2022-09-03T04:32:10;4.30;;;3.25;;
45326;SDS011;31062;49.678;24.560;2022-09-03T04:35:14;4.60;;;3.72;;
45326;SDS011;31062;49.678;24.560;2022-09-03T04:38:00;4.13;;;3.50;;
45326;SDS011;31062;49.678;24.560;2022-09-03T04:40:50;5.07;;;3.25;;
45326;SDS011;31062;49.678;24.560;2022-09-03T04:43:37;5.90;;;3.50;;
45326;SDS011;31062;49.678;24.560;2022-09-03T04:46:24;5.85;;;4.10;;
45326;SDS011;31062;49.678;24.560;2022-09-03T04:49:18;5.85;;;3.33;;
45326;SDS011;31062;49.678;24.560;2022-09-03T04:52:04;5.30;;;3.33;;
45326;SDS011;31062;49.678;24.560;2022-09-03T04:54:50;7.28;;;3.30;;
45326;SDS011;31062;49.678;24.560;2022-09-03T04:57:37;5.22;;;3.45;;
45326;SDS011;31062;49.678;24.560;2022-09-03T05:00:23;5.28;;;3.47;;
45326;SDS011;31062;49.678;24.560;2022-09-03T05:03:10;5.68;;;3.35;;
45326;SDS011;31062;49.678;24.560;2022-09-03T05:05:57;3.10;;;2.83;;
45326;SDS011;31062;49.678;24.560;2022-09-03T05:08:47;4.68;;;3.38;;
45326;SDS011;31062;49.678;24.560;2022-09-03T05:11:34;6.30;;;2.83;;
45326;SDS011;31062;49.678;24.560;2022-09-03T05:14:21;3.42;;;3.13;;
45326;SDS011;31062;49.678;24.560;2022-09-03T05:17:08;4.00;;;3.20;;
45326;SDS011;31062;49.678;24.560;2022-09-03T05:19:54;4.15;;;2.90;;
45326;SDS011;31062;49.678;24.560;2022-09-03T05:22:39;4.25;;;3.13;;
45326;SDS011;31062;49.678;24.560;2022-09-03T05:25:26;3.88;;;2.80;;
45326;SDS011;31062;49.678;24.560;2022-09-03T05:28:12;4.22;;;3.15;;
45326;SDS011;31062;49.678;24.560;2022-09-03T05:33:49;3.03;;;2.72;;
45326;SDS011;31062;49.678;24.560;2022-09-03T05:36:37;3.95;;;2.95;;
45326;SDS011;31062;49.678;24.560;2022-09-03T05:39:24;3.72;;;2.80;;
45326;SDS011;31062;49.678;24.560;2022-09-03T05:42:12;3.58;;;2.90;;
45326;SDS011;31062;49.678;24.560;2022-09-03T05:44:59;4.45;;;3.10;;
45326;SDS011;31062;49.678;24.560;2022-09-03T05:47:44;4.32;;;2.80;;
45326;SDS011;31062;49.678;24.560;2022-09-03T05:50:30;3.40;;;3.00;;
45326;SDS011;31062;49.678;24.560;2022-09-03T05:53:16;3.72;;;3.40;;
45326;SDS011;31062;49.678;24.560;2022-09-03T05:56:03;3.60;;;3.30;;
45326;SDS011;31062;49.678;24.560;2022-09-03T05:58:52;2.90;;;2.70;;
45326;SDS011;31062;49.678;24.560;2022-09-03T06:01:41;6.35;;;3.10;;
45326;SDS011;31062;49.678;24.560;2022-09-03T06:04:37;5.30;;;4.78;;
45326;SDS011;31062;49.678;24.560;2022-09-03T06:07:23;3.25;;;3.05;;
45326;SDS011;31062;49.678;24.560;2022-09-03T06:10:09;4.63;;;3.47;;
45326;SDS011;31062;49.678;24.560;2022-09-03T06:12:56;3.45;;;3.15;;
45326;SDS011;31062;49.678;24.560;2022-09-03T06:15:48;3.35;;;3.05;;
45326;SDS011;31062;49.678;24.560;2022-09-03T06:18:33;3.45;;;3.08;;
45326;SDS011;31062;49.678;24.560;2022-09-03T06:21:19;3.30;;;3.00;;
45326;SDS011;31062;49.678;24.560;2022-09-03T06:24:06;3.35;;;3.08;;
45326;SDS011;31062;49.678;24.560;2022-09-03T06:26:52;4.15;;;3.08;;
45326;SDS011;31062;49.678;24.560;2022-09-03T06:29:38;4.30;;;3.80;;
45326;SDS011;31062;49.678;24.560;2022-09-03T06:32:24;4.97;;;3.95;;
45326;SDS011;31062;49.678;24.560;2022-09-03T06:35:09;9.40;;;5.57;;
45326;SDS011;31062;49.678;24.560;2022-09-03T06:37:55;4.88;;;3.85;;
45326;SDS011;31062;49.678;24.560;2022-09-03T06:40:42;6.20;;;3.03;;
45326;SDS011;31062;49.678;24.560;2022-09-03T06:43:29;4.10;;;3.00;;
45326;SDS011;31062;49.678;24.560;2022-09-03T06:46:17;6.93;;;3.03;;
45326;SDS011;31062;49.678;24.560;2022-09-03T06:49:04;3.58;;;2.92;;
45326;SDS011;31062;49.678;24.560;2022-09-03T06:51:50;2.90;;;2.65;;
45326;SDS011;31062;49.678;24.560;2022-09-03T06:54:36;5.53;;;2.95;;
45326;SDS011;31062;49.678;24.560;2022-09-03T06:57:23;4.07;;;2.67;;
45326;SDS011;31062;49.678;24.560;2022-09-03T07:00:09;3.65;;;3.05;;
45326;SDS011;31062;49.678;24.560;2022-09-03T07:02:56;4.28;;;3.38;;
45326;SDS011;31062;49.678;24.560;2022-09-03T07:05:45;3.95;;;2.90;;
45326;SDS011;31062;49.678;24.560;2022-09-03T07:08:31;9.05;;;4.00;;
45326;SDS011;31062;49.678;24.560;2022-09-03T07:11:19;3.92;;;3.03;;
45326;SDS011;31062;49.678;24.560;2022-09-03T07:14:07;5.55;;;2.97;;
45326;SDS011;31062;49.678;24.560;2022-09-03T07:16:54;4.68;;;3.28;;
45326;SDS011;31062;49.678;24.560;2022-09-03T07:19:40;3.67;;;2.90;;
45326;SDS011;31062;49.678;24.560;2022-09-03T07:22:26;4.80;;;3.80;;
45326;SDS011;31062;49.678;24.560;2022-09-03T07:25:16;3.50;;;2.30;;
45326;SDS011;31062;49.678;24.560;2022-09-03T07:28:04;2.60;;;2.40;;
45326;SDS011;31062;49.678;24.560;2022-09-03T07:30:51;7.57;;;2.60;;
45326;SDS011;31062;49.678;24.560;2022-09-03T07:33:39;5.35;;;2.85;;
45326;SDS011;31062;49.678;24.560;2022-09-03T07:36:28;4.25;;;2.60;;
45326;SDS011;31062;49.678;24.560;2022-09-03T07:39:20;4.07;;;2.25;;
45326;SDS011;31062;49.678;24.560;2022-09-03T07:42:07;4.38;;;2.55;;
45326;SDS011;31062;49.678;24.560;2022-09-03T07:44:54;5.13;;;2.38;;
45326;SDS011;31062;49.678;24.560;2022-09-03T07:47:45;4.50;;;2.20;;
45326;SDS011;31062;49.678;24.560;2022-09-03T07:50:32;3.47;;;2.37;;
45326;SDS011;31062;49.678;24.560;2022-09-03T07:53:23;5.22;;;2.10;;
45326;SDS011;31062;49.678;24.560;2022-09-03T07:56:09;5.55;;;2.45;;
45326;SDS011;31062;49.678;24.560;2022-09-03T07:58:57;3.22;;;2.50;;
45326;SDS011;31062;49.678;24.560;2022-09-03T08:01:43;3.75;;;2.50;;
45326;SDS011;31062;49.678;24.560;2022-09-03T08:04:29;2.72;;;2.38;;
45326;SDS011;31062;49.678;24.560;2022-09-03T08:07:15;4.35;;;2.45;;
45326;SDS011;31062;49.678;24.560;2022-09-03T08:10:01;2.72;;;2.53;;
45326;SDS011;31062;49.678;24.560;2022-09-03T08:12:49;5.15;;;2.72;;
45326;SDS011;31062;49.678;24.560;2022-09-03T08:15:35;3.58;;;2.67;;
45326;SDS011;31062;49.678;24.560;2022-09-03T08:18:21;2.60;;;2.38;;
45326;SDS011;31062;49.678;24.560;2022-09-03T08:21:11;3.50;;;2.45;;
45326;SDS011;31062;49.678;24.560;2022-09-03T08:24:00;6.35;;;3.42;;
45326;SDS011;31062;49.678;24.560;2022-09-03T08:26:50;3.17;;;2.88;;
45326;SDS011;31062;49.678;24.560;2022-09-03T08:29:37;4.78;;;2.72;;
45326;SDS011;31062;49.678;24.560;2022-09-03T08:32:22;3.78;;;2.80;;
45326;SDS011;31062;49.678;24.560;2022-09-03T08:35:09;4.57;;;2.70;;
45326;SDS011;31062;49.678;24.560;2022-09-03T08:37:55;4.47;;;2.50;;
45326;SDS011;31062;49.678;24.560;2022-09-03T08:40:41;5.85;;;3.35;;
45326;SDS011;31062;49.678;24.560;2022-09-03T08:43:29;2.58;;;2.38;;
45326;SDS011;31062;49.678;24.560;2022-09-03T08:46:15;4.65;;;2.80;;
45326;SDS011;31062;49.678;24.560;2022-09-03T08:49:01;5.25;;;2.90;;
45326;SDS011;31062;49.678;24.560;2022-09-03T08:51:47;4.95;;;2.92;;
45326;SDS011;31062;49.678;24.560;2022-09-03T08:54:36;4.50;;;2.90;;
45326;SDS011;31062;49.678;24.560;2022-09-03T08:57:22;3.60;;;2.85;;
45326;SDS011;31062;49.678;24.560;2022-09-03T09:00:10;6.75;;;3.05;;
45326;SDS011;31062;49.678;24.560;2022-09-03T09:03:05;3.33;;;2.20;;
45326;SDS011;31062;49.678;24.560;2022-09-03T09:15:42;2.97;;;2.25;;
45326;SDS011;31062;49.678;24.560;2022-09-03T09:18:50;2.53;;;2.10;;
45326;SDS011;31062;49.678;24.560;2022-09-03T09:21:51;3.60;;;2.35;;
45326;SDS011;31062;49.678;24.560;2022-09-03T09:24:45;3.33;;;2.20;;
45326;SDS011;31062;49.678;24.560;2022-09-03T09:27:33;2.30;;;2.10;;
45326;SDS011;31062;49.678;24.560;2022-09-03T09:30:19;4.63;;;2.42;;
45326;SDS011;31062;49.678;24.560;2022-09-03T09:33:06;3.47;;;2.17;;
45326;SDS011;31062;49.678;24.560;2022-09-03T09:35:52;2.70;;;2.42;;
45326;SDS011;31062;49.678;24.560;2022-09-03T09:38:38;2.90;;;2.47;;
45326;SDS011;31062;49.678;24.560;2022-09-03T09:41:25;2.70;;;1.95;;
45326;SDS011;31062;49.678;24.560;2022-09-03T09:44:18;3.35;;;2.30;;
45326;SDS011;31062;49.678;24.560;2022-09-03T09:47:06;4.78;;;2.28;;
45326;SDS011;31062;49.678;24.560;2022-09-03T09:49:57;2.25;;;2.05;;
45326;SDS011;31062;49.678;24.560;2022-09-03T09:52:52;2.55;;;2.17;;
45326;SDS011;31062;49.678;24.560;2022-09-03T09:55:52;3.90;;;2.10;;
45326;SDS011;31062;49.678;24.560;2022-09-03T09:58:40;3.80;;;2.30;;
45326;SDS011;31062;49.678;24.560;2022-09-03T10:01:25;2.83;;;2.25;;
45326;SDS011;31062;49.678;24.560;2022-09-03T10:04:22;9.85;;;2.10;;
45326;SDS011;31062;49.678;24.560;2022-09-03T10:07:32;3.38;;;2.20;;
45326;SDS011;31062;49.678;24.560;2022-09-03T10:10:20;6.13;;;2.95;;
45326;SDS011;31062;49.678;24.560;2022-09-03T10:13:08;1.92;;;1.83;;
45326;SDS011;31062;49.678;24.560;2022-09-03T10:16:18;1.98;;;1.77;;
45326;SDS011;31062;49.678;24.560;2022-09-03T10:19:11;2.17;;;1.80;;
45326;SDS011;31062;49.678;24.560;2022-09-03T10:22:09;4.40;;;2.67;;
45326;SDS011;31062;49.678;24.560;2022-09-03T10:25:02;2.25;;;1.88;;
45326;SDS011;31062;49.678;24.560;2022-09-03T10:27:52;2.08;;;1.52;;
45326;SDS011;31062;49.678;24.560;2022-09-03T10:31:27;4.57;;;2.08;;
45326;SDS011;31062;49.678;24.560;2022-09-03T10:37:38;5.85;;;1.80;;
45326;SDS011;31062;49.678;24.560;2022-09-03T10:40:37;4.20;;;1.92;;
45326;SDS011;31062;49.678;24.560;2022-09-03T10:46:40;2.15;;;1.90;;
45326;SDS011;31062;49.678;24.560;2022-09-03T10:56:18;2.13;;;1.70;;
45326;SDS011;31062;49.678;24.560;2022-09-03T11:05:26;2.45;;;2.25;;
45326;SDS011;31062;49.678;24.560;2022-09-03T11:08:17;2.53;;;2.30;;
45326;SDS011;31062;49.678;24.560;2022-09-03T11:11:18;1.92;;;1.83;;
45326;SDS011;31062;49.678;24.560;2022-09-03T11:14:38;4.47;;;1.90;;
45326;SDS011;31062;49.678;24.560;2022-09-03T11:17:37;1.70;;;1.60;;
45326;SDS011;31062;49.678;24.560;2022-09-03T11:20:27;1.65;;;1.55;;
45326;SDS011;31062;49.678;24.560;2022-09-03T11:23:14;1.73;;;1.60;;
45326;SDS011;31062;49.678;24.560;2022-09-03T11:26:06;2.75;;;1.33;;
45326;SDS011;31062;49.678;24.560;2022-09-03T11:34:52;2.40;;;1.13;;
45326;SDS011;31062;49.678;24.560;2022-09-03T11:37:48;1.92;;;1.38;;
45326;SDS011;31062;49.678;24.560;2022-09-03T11:43:45;3.78;;;1.80;;
45326;SDS011;31062;49.678;24.560;2022-09-03T11:46:33;1.42;;;1.30;;
45326;SDS011;31062;49.678;24.560;2022-09-03T11:49:30;1.30;;;1.20;;
45326;SDS011;31062;49.678;24.560;2022-09-03T11:52:30;4.03;;;1.30;;
45326;SDS011;31062;49.678;24.560;2022-09-03T11:58:24;1.15;;;1.15;;
45326;SDS011;31062;49.678;24.560;2022-09-03T12:01:14;2.35;;;1.60;;
45326;SDS011;31062;49.678;24.560;2022-09-03T12:04:07;1.20;;;1.10;;
45326;SDS011;31062;49.678;24.560;2022-09-03T12:10:25;1.77;;;1.40;;
45326;SDS011;31062;49.678;24.560;2022-09-03T12:13:46;2.45;;;1.10;;
45326;SDS011;31062;49.678;24.560;2022-09-03T12:19:56;1.10;;;1.08;;
45326;SDS011;31062;49.678;24.560;2022-09-03T12:22:45;1.23;;;1.10;;
45326;SDS011;31062;49.678;24.560;2022-09-03T12:25:31;1.58;;;1.20;;
45326;SDS011;31062;49.678;24.560;2022-09-03T12:28:20;1.55;;;1.20;;
45326;SDS011;31062;49.678;24.560;2022-09-03T12:31:14;3.17;;;1.70;;
45326;SDS011;31062;49.678;24.560;2022-09-03T12:34:10;1.17;;;1.08;;
45326;SDS011;31062;49.678;24.560;2022-09-03T12:36:58;1.05;;;1.02;;
45326;SDS011;31062;49.678;24.560;2022-09-03T12:39:52;1.77;;;1.30;;
45326;SDS011;31062;49.678;24.560;2022-09-03T12:43:10;1.48;;;1.25;;
45326;SDS011;31062;49.678;24.560;2022-09-03T12:46:18;1.20;;;1.10;;
45326;SDS011;31062;49.678;24.560;2022-09-03T12:49:19;1.30;;;1.20;;
45326;SDS011;31062;49.678;24.560;2022-09-03T12:52:25;1.15;;;1.05;;
45326;SDS011;31062;49.678;24.560;2022-09-03T12:55:57;1.20;;;1.13;;
45326;SDS011;31062;49.678;24.560;2022-09-03T12:58:32;2.50;;;1.30;;
45326;SDS011;31062;49.678;24.560;2022-09-03T13:01:36;2.28;;;1.20;;
45326;SDS011;31062;49.678;24.560;2022-09-03T13:04:32;1.52;;;1.08;;
45326;SDS011;31062;49.678;24.560;2022-09-03T13:10:27;3.15;;;1.27;;
45326;SDS011;31062;49.678;24.560;2022-09-03T13:13:24;1.27;;;1.17;;
45326;SDS011;31062;49.678;24.560;2022-09-03T13:16:19;1.77;;;1.67;;
45326;SDS011;31062;49.678;24.560;2022-09-03T13:22:25;1.23;;;1.13;;
45326;SDS011;31062;49.678;24.560;2022-09-03T13:31:31;1.17;;;1.10;;
45326;SDS011;31062;49.678;24.560;2022-09-03T13:34:24;2.42;;;1.20;;
45326;SDS011;31062;49.678;24.560;2022-09-03T13:46:59;1.05;;;1.05;;
45326;SDS011;31062;49.678;24.560;2022-09-03T13:49:57;1.98;;;1.40;;
45326;SDS011;31062;49.678;24.560;2022-09-03T13:53:10;1.73;;;1.08;;
45326;SDS011;31062;49.678;24.560;2022-09-03T13:56:17;1.00;;;1.00;;
45326;SDS011;31062;49.678;24.560;2022-09-03T14:14:59;1.40;;;1.30;;
45326;SDS011;31062;49.678;24.560;2022-09-03T14:17:58;1.35;;;1.35;;
45326;SDS011;31062;49.678;24.560;2022-09-03T14:20:57;1.65;;;0.93;;
45326;SDS011;31062;49.678;24.560;2022-09-03T14:24:03;1.55;;;1.45;;
45326;SDS011;31062;49.678;24.560;2022-09-03T14:26:58;1.02;;;1.00;;
45326;SDS011;31062;49.678;24.560;2022-09-03T14:29:52;3.03;;;1.10;;
45326;SDS011;31062;49.678;24.560;2022-09-03T14:32:50;2.65;;;1.05;;
45326;SDS011;31062;49.678;24.560;2022-09-03T14:36:07;1.70;;;1.10;;
45326;SDS011;31062;49.678;24.560;2022-09-03T14:42:35;1.20;;;1.10;;
45326;SDS011;31062;49.678;24.560;2022-09-03T14:45:41;1.80;;;1.45;;
45326;SDS011;31062;49.678;24.560;2022-09-03T14:55:13;4.85;;;1.60;;
45326;SDS011;31062;49.678;24.560;2022-09-03T14:58:16;1.30;;;1.20;;
45326;SDS011;31062;49.678;24.560;2022-09-03T15:01:11;2.88;;;1.55;;
45326;SDS011;31062;49.678;24.560;2022-09-03T15:14:01;1.73;;;1.63;;
45326;SDS011;31062;49.678;24.560;2022-09-03T15:20:18;3.47;;;1.70;;
45326;SDS011;31062;49.678;24.560;2022-09-03T15:23:29;22.35;;;3.38;;
45326;SDS011;31062;49.678;24.560;2022-09-03T15:26:39;2.97;;;2.25;;
45326;SDS011;31062;49.678;24.560;2022-09-03T15:33:09;3.47;;;1.90;;
45326;SDS011;31062;49.678;24.560;2022-09-03T15:36:21;2.25;;;1.98;;
45326;SDS011;31062;49.678;24.560;2022-09-03T15:39:22;2.13;;;1.92;;
45326;SDS011;31062;49.678;24.560;2022-09-03T15:42:23;2.80;;;1.50;;
45326;SDS011;31062;49.678;24.560;2022-09-03T15:51:48;2.25;;;1.60;;
45326;SDS011;31062;49.678;24.560;2022-09-03T15:57:40;1.67;;;1.58;;
45326;SDS011;31062;49.678;24.560;2022-09-03T16:10:20;1.55;;;1.45;;
45326;SDS011;31062;49.678;24.560;2022-09-03T16:22:58;4.50;;;1.48;;
45326;SDS011;31062;49.678;24.560;2022-09-03T16:29:08;2.13;;;1.60;;
45326;SDS011;31062;49.678;24.560;2022-09-03T16:38:22;2.22;;;1.77;;
45326;SDS011;31062;49.678;24.560;2022-09-03T16:41:35;1.70;;;1.60;;
45326;SDS011;31062;49.678;24.560;2022-09-03T17:07:17;2.92;;;1.35;;
45326;SDS011;31062;49.678;24.560;2022-09-03T17:10:17;5.20;;;1.38;;
45326;SDS011;31062;49.678;24.560;2022-09-03T17:16:51;2.13;;;1.88;;
45326;SDS011;31062;49.678;24.560;2022-09-03T17:19:49;8.23;;;1.85;;
45326;SDS011;31062;49.678;24.560;2022-09-03T17:22:56;7.68;;;2.78;;
45326;SDS011;31062;49.678;24.560;2022-09-03T17:26:38;2.05;;;1.77;;
45326;SDS011;31062;49.678;24.560;2022-09-03T17:29:29;3.65;;;1.83;;
45326;SDS011;31062;49.678;24.560;2022-09-03T17:42:21;2.60;;;1.85;;
45326;SDS011;31062;49.678;24.560;2022-09-03T17:48:10;5.65;;;1.90;;
45326;SDS011;31062;49.678;24.560;2022-09-03T17:57:17;1.70;;;1.60;;
45326;SDS011;31062;49.678;24.560;2022-09-03T18:00:23;4.72;;;1.58;;
45326;SDS011;31062;49.678;24.560;2022-09-03T18:03:21;2.22;;;2.00;;
45326;SDS011;31062;49.678;24.560;2022-09-03T18:06:21;3.15;;;2.05;;
45326;SDS011;31062;49.678;24.560;2022-09-03T18:09:32;2.58;;;1.70;;
45326;SDS011;31062;49.678;24.560;2022-09-03T18:18:49;3.92;;;2.10;;
45326;SDS011;31062;49.678;24.560;2022-09-03T18:21:36;2.00;;;1.90;;
45326;SDS011;31062;49.678;24.560;2022-09-03T18:24:53;5.38;;;2.00;;
45326;SDS011;31062;49.678;24.560;2022-09-03T18:28:03;2.50;;;1.70;;
45326;SDS011;31062;49.678;24.560;2022-09-03T18:31:12;3.53;;;2.13;;
45326;SDS011;31062;49.678;24.560;2022-09-03T18:34:23;2.38;;;2.17;;
45326;SDS011;31062;49.678;24.560;2022-09-03T18:40:42;3.35;;;1.88;;
45326;SDS011;31062;49.678;24.560;2022-09-03T18:54:35;4.88;;;1.63;;
45326;SDS011;31062;49.678;24.560;2022-09-03T19:01:42;2.22;;;2.03;;
45326;SDS011;31062;49.678;24.560;2022-09-03T19:21:30;2.58;;;1.88;;
45326;SDS011;31062;49.678;24.560;2022-09-03T19:24:44;2.95;;;2.22;;
45326;SDS011;31062;49.678;24.560;2022-09-03T19:38:02;3.47;;;2.13;;
45326;SDS011;31062;49.678;24.560;2022-09-03T19:41:31;4.72;;;2.00;;
45326;SDS011;31062;49.678;24.560;2022-09-03T19:44:51;4.30;;;2.20;;
45326;SDS011;31062;49.678;24.560;2022-09-03T19:54:55;2.05;;;1.80;;
45326;SDS011;31062;49.678;24.560;2022-09-03T19:58:01;3.30;;;2.00;;
45326;SDS011;31062;49.678;24.560;2022-09-03T20:01:28;4.93;;;2.00;;
45326;SDS011;31062;49.678;24.560;2022-09-03T20:04:38;5.78;;;2.50;;
45326;SDS011;31062;49.678;24.560;2022-09-03T20:07:49;2.35;;;2.08;;
45326;SDS011;31062;49.678;24.560;2022-09-03T20:10:57;2.80;;;1.88;;
45326;SDS011;31062;49.678;24.560;2022-09-03T20:13:45;2.72;;;2.00;;
45326;SDS011;31062;49.678;24.560;2022-09-03T20:30:17;2.63;;;1.95;;
45326;SDS011;31062;49.678;24.560;2022-09-03T20:36:06;2.17;;;1.73;;
45326;SDS011;31062;49.678;24.560;2022-09-03T20:45:27;2.17;;;1.75;;
45326;SDS011;31062;49.678;24.560;2022-09-03T20:51:25;3.15;;;1.98;;
45326;SDS011;31062;49.678;24.560;2022-09-03T20:54:37;1.90;;;1.75;;
45326;SDS011;31062;49.678;24.560;2022-09-03T21:00:52;2.25;;;1.92;;
45326;SDS011;31062;49.678;24.560;2022-09-03T21:16:54;2.42;;;1.80;;
45326;SDS011;31062;49.678;24.560;2022-09-03T21:23:24;2.75;;;2.00;;
45326;SDS011;31062;49.678;24.560;2022-09-03T21:29:08;2.28;;;2.10;;
45326;SDS011;31062;49.678;24.560;2022-09-03T21:32:16;5.43;;;2.20;;
45326;SDS011;31062;49.678;24.560;2022-09-03T21:35:10;2.75;;;2.33;;
45326;SDS011;31062;49.678;24.560;2022-09-03T21:38:20;5.85;;;2.85;;
45326;SDS011;31062;49.678;24.560;2022-09-03T21:41:16;3.28;;;2.42;;
45326;SDS011;31062;49.678;24.560;2022-09-03T21:44:07;5.47;;;2.47;;
45326;SDS011;31062;49.678;24.560;2022-09-03T21:46:59;3.08;;;2.70;;
45326;SDS011;31062;49.678;24.560;2022-09-03T22:02:30;2.88;;;2.47;;
45326;SDS011;31062;49.678;24.560;2022-09-03T22:05:17;4.53;;;2.90;;
45326;SDS011;31062;49.678;24.560;2022-09-03T22:08:15;3.45;;;2.67;;
45326;SDS011;31062;49.678;24.560;2022-09-03T22:11:37;6.35;;;2.83;;
45326;SDS011;31062;49.678;24.560;2022-09-03T22:14:34;4.30;;;2.35;;
45326;SDS011;31062;49.678;24.560;2022-09-03T22:20:45;3.80;;;2.13;;
45326;SDS011;31062;49.678;24.560;2022-09-03T22:24:02;6.40;;;2.63;;
45326;SDS011;31062;49.678;24.560;2022-09-03T22:36:26;7.13;;;3.20;;
45326;SDS011;31062;49.678;24.560;2022-09-03T22:39:19;3.53;;;3.20;;
45326;SDS011;31062;49.678;24.560;2022-09-03T22:42:16;2.97;;;2.72;;
45326;SDS011;31062;49.678;24.560;2022-09-03T22:48:57;4.38;;;3.28;;
45326;SDS011;31062;49.678;24.560;2022-09-03T22:51:19;6.60;;;2.85;;
45326;SDS011;31062;49.678;24.560;2022-09-03T22:54:19;5.80;;;2.80;;
45326;SDS011;31062;49.678;24.560;2022-09-03T22:57:07;3.83;;;2.85;;
45326;SDS011;31062;49.678;24.560;2022-09-03T23:00:02;9.02;;;3.15;;
45326;SDS011;31062;49.678;24.560;2022-09-03T23:02:56;2.58;;;2.38;;
45326;SDS011;31062;49.678;24.560;2022-09-03T23:05:58;5.95;;;2.47;;
45326;SDS011;31062;49.678;24.560;2022-09-03T23:08:55;3.40;;;2.22;;
45326;SDS011;31062;49.678;24.560;2022-09-03T23:12:07;5.38;;;2.70;;
45326;SDS011;31062;49.678;24.560;2022-09-03T23:14:59;4.95;;;2.20;;
45326;SDS011;31062;49.678;24.560;2022-09-03T23:17:53;2.50;;;1.98;;
45326;SDS011;31062;49.678;24.560;2022-09-03T23:20:57;3.85;;;2.20;;
45326;SDS011;31062;49.678;24.560;2022-09-03T23:23:57;2.75;;;2.35;;
45326;SDS011;31062;49.678;24.560;2022-09-03T23:26:48;3.78;;;2.72;;
45326;SDS011;31062;49.678;24.560;2022-09-03T23:29:47;5.30;;;2.53;;
45326;SDS011;31062;49.678;24.560;2022-09-03T23:32:38;2.63;;;2.30;;
45326;SDS011;31062;49.678;24.560;2022-09-03T23:35:25;5.25;;;2.60;;